Time;durP1;ratioP1;P1;durP2;ratioP2;P2;SDS_P1;SDS_P2;PMS_P1;PMS_P2;Temp;Humidity;BMP_temperature;BMP_pressure;BME280_temperature;BME280_humidity;BME280_pressure;Samples;Min_cycle;Max_cycle;Signal;HPM_P1;HPM_P2
2023/09/05 00:00:10;;;;;;;0.35;0.35;;;14.10;99.90;;;;;;5005359;28;20045;-74
2023/09/05 00:02:38;;;;;;;0.30;0.30;;;14.10;99.90;;;;;;4989333;28;20165;-74
2023/09/05 00:05:07;;;;;;;0.20;0.20;;;14.00;99.90;;;;;;4987707;28;20550;-75
2023/09/05 00:07:36;;;;;;;0.43;0.43;;;14.00;99.90;;;;;;4984129;28;20061;-75
2023/09/05 00:10:04;;;;;;;0.40;0.40;;;14.00;99.90;;;;;;4995591;28;20197;-75
2023/09/05 00:12:31;;;;;;;0.30;0.30;;;13.90;99.90;;;;;;4988255;28;20046;-75
2023/09/05 00:14:58;;;;;;;0.20;0.20;;;13.90;99.90;;;;;;4993930;28;20407;-75
2023/09/05 00:17:24;;;;;;;0.30;0.30;;;13.90;99.90;;;;;;4993630;28;20440;-75
2023/09/05 00:19:51;;;;;;;0.30;0.30;;;13.90;99.90;;;;;;4989943;28;20064;-74
2023/09/05 00:22:19;;;;;;;0.20;0.20;;;13.80;99.90;;;;;;4985393;28;20046;-74
2023/09/05 00:24:44;;;;;;;0.38;0.38;;;13.80;99.90;;;;;;4984023;28;20045;-76
2023/09/05 00:27:11;;;;;;;0.38;0.38;;;13.80;99.90;;;;;;4991171;28;20045;-74
2023/09/05 00:29:38;;;;;;;0.55;0.55;;;13.80;99.90;;;;;;4991476;28;20113;-75
2023/09/05 00:32:04;;;;;;;0.32;0.32;;;13.70;99.90;;;;;;4988110;28;20049;-74
2023/09/05 00:34:34;;;;;;;0.57;0.57;;;13.70;99.90;;;;;;4999368;28;20169;-74
2023/09/05 00:37:01;;;;;;;0.28;0.28;;;13.70;99.90;;;;;;4989935;28;20150;-74
2023/09/05 00:39:27;;;;;;;0.30;0.30;;;13.70;99.90;;;;;;4996716;28;20407;-75
2023/09/05 00:41:56;;;;;;;0.40;0.40;;;13.60;99.90;;;;;;4988809;28;20076;-74
2023/09/05 00:44:26;;;;;;;0.20;0.20;;;13.60;99.90;;;;;;4988664;28;20605;-74
2023/09/05 00:46:54;;;;;;;0.43;0.43;;;13.60;99.90;;;;;;4978927;28;20046;-75
2023/09/05 00:49:28;;;;;;;0.30;0.30;;;13.60;99.90;;;;;;4990461;28;20173;-77
2023/09/05 00:51:58;;;;;;;0.40;0.40;;;13.50;99.90;;;;;;4986367;28;20168;-74
2023/09/05 00:54:24;;;;;;;0.32;0.32;;;13.50;99.90;;;;;;4996181;28;20077;-74
2023/09/05 00:56:52;;;;;;;0.28;0.28;;;13.50;99.90;;;;;;4989461;28;20050;-74
2023/09/05 00:59:19;;;;;;;0.40;0.40;;;13.50;99.90;;;;;;4994479;28;20756;-76
2023/09/05 01:01:45;;;;;;;0.30;0.30;;;13.50;99.90;;;;;;4983560;28;20787;-76
2023/09/05 01:04:13;;;;;;;0.32;0.32;;;13.50;99.90;;;;;;4985892;28;20112;-74
2023/09/05 01:07:03;;;;;;;0.30;0.30;;;13.50;99.90;;;;;;4985224;28;20495;-76
2023/09/05 01:09:44;;;;;;;0.22;0.22;;;13.40;99.90;;;;;;4981375;28;20132;-74
2023/09/05 01:12:10;;;;;;;0.40;0.40;;;13.40;99.90;;;;;;5005605;28;20056;-74
2023/09/05 01:14:35;;;;;;;0.40;0.40;;;13.50;99.90;;;;;;4988947;28;20402;-74
2023/09/05 01:17:01;;;;;;;0.68;0.68;;;13.40;99.90;;;;;;4988529;28;20053;-74
2023/09/05 01:19:34;;;;;;;0.30;0.30;;;13.40;99.90;;;;;;4991949;28;20052;-75
2023/09/05 01:22:13;;;;;;;0.40;0.40;;;13.40;99.90;;;;;;4979720;28;20050;-76
2023/09/05 01:24:40;;;;;;;0.30;0.30;;;13.40;99.90;;;;;;5004903;28;20472;-76
2023/09/05 01:27:07;;;;;;;0.20;0.20;;;13.40;99.90;;;;;;4989950;28;20054;-75
2023/09/05 01:29:39;;;;;;;0.40;0.40;;;13.40;99.90;;;;;;5001057;28;20068;-76
2023/09/05 01:32:07;;;;;;;0.20;0.20;;;13.30;99.90;;;;;;4979026;28;20522;-75
2023/09/05 01:34:33;;;;;;;0.20;0.20;;;13.30;99.90;;;;;;4980316;28;20053;-75
2023/09/05 01:36:59;;;;;;;0.40;0.40;;;13.30;99.90;;;;;;4984670;28;20440;-75
2023/09/05 01:39:24;;;;;;;0.60;0.60;;;13.30;99.90;;;;;;4999198;28;20133;-76
2023/09/05 01:41:51;;;;;;;0.30;0.30;;;13.30;99.90;;;;;;4991685;28;20139;-75
2023/09/05 01:44:17;;;;;;;0.43;0.43;;;13.30;99.90;;;;;;5001020;28;20042;-76
2023/09/05 01:46:42;;;;;;;0.30;0.30;;;13.30;99.90;;;;;;4987871;28;20454;-76
2023/09/05 01:49:08;;;;;;;0.43;0.43;;;13.20;99.90;;;;;;4984315;28;20076;-76
2023/09/05 01:51:34;;;;;;;0.70;0.60;;;13.30;99.90;;;;;;4998106;28;20096;-76
2023/09/05 01:54:00;;;;;;;0.50;0.50;;;13.20;99.90;;;;;;5010835;28;20218;-75
2023/09/05 01:56:26;;;;;;;0.55;0.55;;;13.20;99.90;;;;;;4988354;28;20446;-76
2023/09/05 01:58:51;;;;;;;0.40;0.40;;;13.20;99.90;;;;;;4988600;28;20822;-76
2023/09/05 02:01:17;;;;;;;0.28;0.28;;;13.20;99.90;;;;;;4989970;28;20053;-76
2023/09/05 02:03:42;;;;;;;0.45;0.45;;;13.20;99.90;;;;;;4988360;28;20129;-76
2023/09/05 02:06:08;;;;;;;0.40;0.40;;;13.20;99.90;;;;;;5010708;28;20076;-75
2023/09/05 02:08:37;;;;;;;0.40;0.40;;;13.20;99.90;;;;;;4982759;28;20145;-75
2023/09/05 02:11:03;;;;;;;0.30;0.30;;;13.10;99.90;;;;;;4994429;28;20099;-76
2023/09/05 02:13:29;;;;;;;0.25;0.25;;;13.10;99.90;;;;;;4989501;28;20041;-76
2023/09/05 02:15:56;;;;;;;0.40;0.40;;;13.10;99.90;;;;;;4983581;28;20076;-75
2023/09/05 02:18:21;;;;;;;0.60;0.60;;;13.10;99.90;;;;;;4983181;28;20080;-75
2023/09/05 02:20:47;;;;;;;0.65;0.65;;;13.00;99.90;;;;;;4992068;28;20446;-76
2023/09/05 02:23:13;;;;;;;0.30;0.30;;;13.00;99.90;;;;;;4992567;28;20085;-76
2023/09/05 02:25:39;;;;;;;0.30;0.30;;;13.00;99.90;;;;;;4992644;28;20088;-76
2023/09/05 02:28:05;;;;;;;0.30;0.30;;;13.00;99.90;;;;;;5004689;28;20482;-75
2023/09/05 02:30:30;;;;;;;0.40;0.40;;;13.00;99.90;;;;;;4984973;28;20876;-76
2023/09/05 02:32:57;;;;;;;0.55;0.55;;;13.00;99.90;;;;;;4990116;28;20054;-76
2023/09/05 02:35:27;;;;;;;0.40;0.40;;;13.00;99.90;;;;;;4991842;28;20038;-76
2023/09/05 02:37:54;;;;;;;0.30;0.30;;;12.90;99.90;;;;;;4997958;28;20112;-76
2023/09/05 02:40:20;;;;;;;0.53;0.53;;;12.90;99.90;;;;;;4988691;28;20142;-76
2023/09/05 02:42:46;;;;;;;0.30;0.30;;;12.90;99.90;;;;;;5006466;28;20297;-76
2023/09/05 02:45:13;;;;;;;0.25;0.25;;;12.90;99.90;;;;;;5000291;28;20044;-76
2023/09/05 02:47:39;;;;;;;0.30;0.30;;;12.90;99.90;;;;;;4988593;28;20050;-76
2023/09/05 02:50:05;;;;;;;0.50;0.50;;;12.80;99.90;;;;;;4991488;28;20132;-75
2023/09/05 02:52:33;;;;;;;0.63;0.52;;;12.80;99.90;;;;;;4994431;28;20133;-76
2023/09/05 02:54:58;;;;;;;0.60;0.60;;;12.80;99.90;;;;;;4986919;28;20092;-76
2023/09/05 02:57:24;;;;;;;0.30;0.30;;;12.80;99.90;;;;;;4984512;28;20042;-76
2023/09/05 02:59:53;;;;;;;0.57;0.57;;;12.80;99.90;;;;;;4988088;28;20053;-75
2023/09/05 03:02:21;;;;;;;0.40;0.40;;;12.70;99.90;;;;;;4991705;28;20050;-76
2023/09/05 03:04:51;;;;;;;0.40;0.40;;;12.70;99.90;;;;;;4987566;28;20055;-76
2023/09/05 03:07:17;;;;;;;0.40;0.40;;;12.70;99.90;;;;;;4988960;28;20569;-76
2023/09/05 03:09:43;;;;;;;0.45;0.45;;;12.70;99.90;;;;;;4992057;28;20199;-76
2023/09/05 03:12:10;;;;;;;0.40;0.40;;;12.70;99.90;;;;;;4985781;28;20094;-76
2023/09/05 03:14:35;;;;;;;0.30;0.30;;;12.60;99.90;;;;;;4987476;28;20034;-76
2023/09/05 03:17:03;;;;;;;0.43;0.43;;;12.60;99.90;;;;;;4986721;28;20105;-77
2023/09/05 03:19:28;;;;;;;0.30;0.30;;;12.60;99.90;;;;;;4985044;28;20050;-76
2023/09/05 03:21:54;;;;;;;0.40;0.40;;;12.50;99.90;;;;;;4994282;28;20116;-76
2023/09/05 03:24:21;;;;;;;1.05;1.05;;;12.60;99.90;;;;;;4996161;28;20136;-76
2023/09/05 03:26:47;;;;;;;1.30;1.00;;;12.50;99.90;;;;;;4991014;28;20045;-76
2023/09/05 03:29:13;;;;;;;0.32;0.32;;;12.50;99.90;;;;;;5001518;28;20523;-77
2023/09/05 03:31:40;;;;;;;0.20;0.20;;;12.50;99.90;;;;;;5003928;28;20136;-76
2023/09/05 03:34:06;;;;;;;0.30;0.30;;;12.50;99.90;;;;;;5007647;28;20045;-76
2023/09/05 03:36:32;;;;;;;0.30;0.30;;;12.50;99.90;;;;;;4991085;28;20042;-76
2023/09/05 03:38:58;;;;;;;0.28;0.28;;;12.50;99.90;;;;;;5000119;28;20053;-76
2023/09/05 03:41:24;;;;;;;0.40;0.40;;;12.50;99.90;;;;;;4996059;28;20041;-76
2023/09/05 03:43:50;;;;;;;0.55;0.55;;;12.40;99.90;;;;;;5008832;28;20054;-76
2023/09/05 03:46:16;;;;;;;0.28;0.28;;;12.50;99.90;;;;;;4970564;28;20500;-76
2023/09/05 03:48:41;;;;;;;0.32;0.32;;;12.40;99.90;;;;;;4993172;28;20050;-76
2023/09/05 03:51:08;;;;;;;0.55;0.55;;;12.40;99.90;;;;;;4989394;28;20057;-76
2023/09/05 03:53:34;;;;;;;0.40;0.40;;;12.40;99.90;;;;;;5007419;28;20046;-76
2023/09/05 03:55:59;;;;;;;0.30;0.30;;;12.40;99.90;;;;;;4987070;28;20073;-76
2023/09/05 03:58:25;;;;;;;0.40;0.40;;;12.40;99.90;;;;;;5003165;28;20037;-76
2023/09/05 04:00:51;;;;;;;0.40;0.40;;;12.30;99.90;;;;;;5004416;28;20148;-75
2023/09/05 04:03:17;;;;;;;0.20;0.20;;;12.30;99.90;;;;;;4979895;28;20065;-76
2023/09/05 04:05:42;;;;;;;0.32;0.32;;;12.30;99.90;;;;;;5001649;28;20049;-76
2023/09/05 04:08:09;;;;;;;0.47;0.47;;;12.30;99.90;;;;;;4987424;28;20482;-76
2023/09/05 04:10:35;;;;;;;0.30;0.30;;;12.30;99.90;;;;;;4987684;28;20034;-75
2023/09/05 04:13:01;;;;;;;0.40;0.40;;;12.30;99.90;;;;;;4982434;28;20048;-75
2023/09/05 04:15:26;;;;;;;0.30;0.30;;;12.20;99.90;;;;;;4982699;28;20061;-75
2023/09/05 04:17:52;;;;;;;0.30;0.30;;;12.20;99.90;;;;;;4990428;28;20562;-75
2023/09/05 04:20:18;;;;;;;0.20;0.20;;;12.20;99.90;;;;;;4986168;28;20469;-76
2023/09/05 04:22:44;;;;;;;0.40;0.40;;;12.20;99.90;;;;;;4990124;28;20054;-76
2023/09/05 04:25:10;;;;;;;0.60;0.60;;;12.20;99.90;;;;;;4997502;28;20100;-76
2023/09/05 04:27:36;;;;;;;0.40;0.40;;;12.20;99.90;;;;;;5006196;28;20487;-75
2023/09/05 04:30:03;;;;;;;0.30;0.30;;;12.20;99.90;;;;;;4982868;28;20047;-75
2023/09/05 04:32:31;;;;;;;0.28;0.28;;;12.20;99.90;;;;;;4993004;28;20042;-75
2023/09/05 04:35:00;;;;;;;0.30;0.30;;;12.10;99.90;;;;;;4989565;28;20092;-75
2023/09/05 04:37:27;;;;;;;0.60;0.60;;;12.10;99.90;;;;;;4987740;28;20083;-75
2023/09/05 04:39:53;;;;;;;0.40;0.40;;;12.10;99.90;;;;;;4994296;28;20064;-75
2023/09/05 04:42:19;;;;;;;0.40;0.40;;;12.10;99.90;;;;;;4981627;28;20052;-75
2023/09/05 04:44:45;;;;;;;0.43;0.43;;;12.10;99.90;;;;;;4986012;28;20050;-74
2023/09/05 04:47:24;;;;;;;0.45;0.45;;;12.10;99.90;;;;;;4997129;28;20093;-75
2023/09/05 04:49:52;;;;;;;0.40;0.40;;;12.00;99.90;;;;;;4990493;28;20052;-74
2023/09/05 04:52:23;;;;;;;0.30;0.30;;;12.00;99.90;;;;;;4985379;28;20499;-75
2023/09/05 04:54:49;;;;;;;0.22;0.22;;;12.00;99.90;;;;;;4992468;28;20517;-75
2023/09/05 04:57:16;;;;;;;0.32;0.32;;;12.00;99.90;;;;;;4994864;28;20042;-75
2023/09/05 04:59:47;;;;;;;0.28;0.28;;;12.00;99.90;;;;;;5001400;28;20042;-75
2023/09/05 05:02:16;;;;;;;0.40;0.40;;;12.00;99.90;;;;;;4991118;28;20149;-75
2023/09/05 05:04:45;;;;;;;0.30;0.30;;;12.00;99.90;;;;;;4988798;28;20462;-74
2023/09/05 05:07:11;;;;;;;0.40;0.40;;;12.00;99.90;;;;;;4986011;28;20041;-75
2023/09/05 05:09:40;;;;;;;0.38;0.38;;;12.00;99.90;;;;;;5006920;28;20194;-74
2023/09/05 05:12:06;;;;;;;0.35;0.35;;;12.00;99.90;;;;;;4997356;28;20041;-74
2023/09/05 05:14:32;;;;;;;0.30;0.30;;;12.00;99.90;;;;;;4989447;28;20042;-74
2023/09/05 05:16:57;;;;;;;0.40;0.40;;;12.00;99.90;;;;;;4981676;28;20053;-74
2023/09/05 05:19:24;;;;;;;0.30;0.30;;;12.00;99.90;;;;;;4994184;28;20046;-75
2023/09/05 05:21:50;;;;;;;0.45;0.45;;;12.00;99.90;;;;;;4983576;28;20046;-75
2023/09/05 05:24:16;;;;;;;0.30;0.30;;;12.10;99.90;;;;;;4988142;28;20121;-74
2023/09/05 05:26:42;;;;;;;0.50;0.50;;;12.10;99.90;;;;;;4989875;28;20455;-75
2023/09/05 05:29:08;;;;;;;0.50;0.50;;;12.20;99.90;;;;;;4987128;28;20050;-75
2023/09/05 05:31:34;;;;;;;0.40;0.40;;;12.20;99.90;;;;;;4990429;28;20065;-75
2023/09/05 05:34:00;;;;;;;0.50;0.50;;;12.30;99.90;;;;;;4988614;28;20054;-75
2023/09/05 05:36:26;;;;;;;0.40;0.40;;;12.40;99.90;;;;;;4989750;28;20038;-75
2023/09/05 05:38:52;;;;;;;0.93;0.60;;;12.50;99.90;;;;;;4975815;28;20049;-75
2023/09/05 05:41:18;;;;;;;0.40;0.40;;;12.60;99.90;;;;;;4985049;28;20488;-75
2023/09/05 05:43:44;;;;;;;0.43;0.43;;;12.70;99.90;;;;;;4989741;28;20050;-75
2023/09/05 05:46:12;;;;;;;0.22;0.22;;;12.70;99.90;;;;;;4995216;28;20061;-75
2023/09/05 05:48:38;;;;;;;0.33;0.33;;;12.90;99.90;;;;;;4995756;28;20064;-76
2023/09/05 05:51:04;;;;;;;0.82;0.82;;;13.00;99.90;;;;;;4992377;28;20065;-76
2023/09/05 05:53:30;;;;;;;0.60;0.60;;;13.10;99.90;;;;;;4988754;28;20043;-75
2023/09/05 05:55:55;;;;;;;0.30;0.30;;;13.20;99.90;;;;;;4989149;28;20054;-75
2023/09/05 05:58:21;;;;;;;0.40;0.40;;;13.20;99.90;;;;;;4981446;28;20140;-76
2023/09/05 06:00:50;;;;;;;0.40;0.40;;;13.30;99.90;;;;;;5002846;28;20078;-76
2023/09/05 06:03:17;;;;;;;0.57;0.57;;;13.40;99.90;;;;;;4972510;28;20046;-74
2023/09/05 06:05:44;;;;;;;0.30;0.30;;;13.40;99.90;;;;;;4999465;28;20060;-74
2023/09/05 06:08:09;;;;;;;0.73;0.70;;;13.40;99.90;;;;;;4988281;28;20076;-74
2023/09/05 06:10:35;;;;;;;0.38;0.38;;;13.40;99.90;;;;;;4993125;28;20091;-74
2023/09/05 06:13:04;;;;;;;0.38;0.38;;;13.50;99.90;;;;;;4975567;28;20487;-74
2023/09/05 06:15:30;;;;;;;0.40;0.40;;;13.50;99.90;;;;;;5003099;28;20058;-74
2023/09/05 06:17:56;;;;;;;0.40;0.40;;;13.50;99.90;;;;;;4994312;28;20050;-73
2023/09/05 06:20:21;;;;;;;0.40;0.40;;;13.50;99.90;;;;;;4986895;28;20046;-73
2023/09/05 06:22:47;;;;;;;0.40;0.40;;;13.60;99.90;;;;;;4994024;28;20457;-73
2023/09/05 06:25:13;;;;;;;0.30;0.30;;;13.60;99.90;;;;;;4995975;28;20057;-73
2023/09/05 06:27:43;;;;;;;0.55;0.55;;;13.70;99.90;;;;;;4992159;28;20050;-73
2023/09/05 06:30:09;;;;;;;0.40;0.40;;;13.80;99.90;;;;;;4984930;28;20077;-73
2023/09/05 06:32:35;;;;;;;0.30;0.30;;;13.80;99.90;;;;;;5000073;28;20064;-73
2023/09/05 06:35:00;;;;;;;0.70;0.70;;;13.90;99.90;;;;;;4990455;28;20476;-73
2023/09/05 06:37:31;;;;;;;0.40;0.40;;;13.90;99.90;;;;;;5007997;28;20060;-73
2023/09/05 06:39:58;;;;;;;0.30;0.30;;;14.10;99.90;;;;;;4991217;28;20045;-74
2023/09/05 06:42:23;;;;;;;0.82;0.82;;;14.20;99.90;;;;;;4999609;28;20085;-73
2023/09/05 06:44:49;;;;;;;0.40;0.40;;;14.30;99.90;;;;;;4990511;28;20131;-73
2023/09/05 06:47:15;;;;;;;0.65;0.65;;;14.30;99.90;;;;;;4988027;28;20564;-73
2023/09/05 06:49:40;;;;;;;0.40;0.40;;;14.50;99.90;;;;;;5005145;28;20045;-73
2023/09/05 06:52:06;;;;;;;0.57;0.57;;;14.60;99.90;;;;;;4996427;28;20175;-73
2023/09/05 06:54:32;;;;;;;0.50;0.50;;;14.70;99.90;;;;;;4991789;28;20046;-73
2023/09/05 06:56:58;;;;;;;0.40;0.40;;;14.80;99.90;;;;;;5000750;28;20066;-73
2023/09/05 06:59:24;;;;;;;0.90;0.90;;;15.00;99.90;;;;;;5000187;28;20042;-74
2023/09/05 07:01:49;;;;;;;0.47;0.47;;;15.20;99.90;;;;;;4988135;28;20477;-74
2023/09/05 07:04:15;;;;;;;0.52;0.52;;;15.40;99.90;;;;;;4989018;28;20058;-74
2023/09/05 07:06:41;;;;;;;0.55;0.45;;;15.60;99.90;;;;;;4995247;28;20050;-73
2023/09/05 07:09:07;;;;;;;0.88;0.88;;;15.90;99.90;;;;;;4987256;28;20411;-74
2023/09/05 07:11:34;;;;;;;0.57;0.57;;;16.10;99.90;;;;;;4988822;28;20462;-74
2023/09/05 07:13:59;;;;;;;0.55;0.55;;;16.40;99.90;;;;;;4983361;28;20044;-74
2023/09/05 07:16:26;;;;;;;0.45;0.45;;;16.70;99.90;;;;;;4994646;28;20050;-74
2023/09/05 07:18:53;;;;;;;0.75;0.75;;;17.10;99.90;;;;;;4988150;28;20068;-74
2023/09/05 07:21:19;;;;;;;0.20;0.20;;;17.40;99.90;;;;;;4986714;28;20056;-74
2023/09/05 07:23:44;;;;;;;0.80;0.80;;;17.80;99.90;;;;;;4989356;28;20054;-74
2023/09/05 07:26:10;;;;;;;0.55;0.55;;;18.10;99.90;;;;;;4995565;28;20046;-74
2023/09/05 07:28:36;;;;;;;0.65;0.65;;;18.40;99.90;;;;;;4996263;28;20038;-75
2023/09/05 07:31:02;;;;;;;0.43;0.43;;;18.80;99.90;;;;;;4987609;28;20065;-74
2023/09/05 07:33:28;;;;;;;0.82;0.82;;;19.00;99.90;;;;;;5006419;28;20042;-74
2023/09/05 07:35:54;;;;;;;0.30;0.30;;;19.30;99.90;;;;;;4988192;28;20045;-73
2023/09/05 07:38:21;;;;;;;0.30;0.30;;;19.50;99.90;;;;;;4986985;28;20053;-74
2023/09/05 07:41:03;;;;;;;0.50;0.47;;;19.70;99.90;;;;;;5002825;28;20058;-74
2023/09/05 07:43:30;;;;;;;0.30;0.30;;;19.90;99.90;;;;;;4995038;28;20095;-74
2023/09/05 07:45:56;;;;;;;0.30;0.30;;;20.10;99.90;;;;;;4986492;28;20046;-73
2023/09/05 07:48:22;;;;;;;0.40;0.40;;;20.20;99.90;;;;;;4988906;28;20041;-74
2023/09/05 07:50:47;;;;;;;0.52;0.50;;;20.40;99.90;;;;;;4984704;28;20092;-72
2023/09/05 07:53:13;;;;;;;0.40;0.40;;;20.60;99.90;;;;;;4987106;28;20509;-73
2023/09/05 07:55:39;;;;;;;0.73;0.65;;;20.90;99.90;;;;;;4979720;28;20050;-72
2023/09/05 07:58:05;;;;;;;0.95;0.95;;;21.10;99.90;;;;;;4988039;28;20080;-72
2023/09/05 08:00:31;;;;;;;0.45;0.45;;;21.30;99.90;;;;;;4988175;28;20050;-72
2023/09/05 08:02:58;;;;;;;0.68;0.68;;;21.50;99.90;;;;;;4989515;28;20050;-72
2023/09/05 08:05:24;;;;;;;0.40;0.40;;;21.70;99.90;;;;;;4988375;28;20391;-72
2023/09/05 08:07:50;;;;;;;3.40;0.70;;;22.00;99.90;;;;;;4988480;28;20125;-72
2023/09/05 08:10:16;;;;;;;0.45;0.45;;;22.20;99.90;;;;;;4999204;28;20049;-72
2023/09/05 08:12:42;;;;;;;0.50;0.50;;;22.40;99.90;;;;;;4988460;28;20099;-73
2023/09/05 08:15:09;;;;;;;0.40;0.40;;;22.60;99.90;;;;;;4980971;28;20093;-73
2023/09/05 08:17:35;;;;;;;0.68;0.40;;;22.90;99.90;;;;;;4984042;28;20053;-73
2023/09/05 08:20:01;;;;;;;0.50;0.50;;;23.10;99.90;;;;;;4981211;28;20038;-73
2023/09/05 08:22:27;;;;;;;0.50;0.50;;;23.20;99.90;;;;;;5000501;28;20111;-73
2023/09/05 08:24:52;;;;;;;0.20;0.20;;;23.30;99.90;;;;;;4988151;28;20048;-72
2023/09/05 08:27:19;;;;;;;0.57;0.57;;;23.50;99.90;;;;;;4991747;28;20045;-72
2023/09/05 08:29:45;;;;;;;0.57;0.57;;;23.80;99.90;;;;;;4988520;28;20058;-73
2023/09/05 08:32:11;;;;;;;0.52;0.52;;;23.90;99.90;;;;;;4988694;28;20054;-73
2023/09/05 08:34:40;;;;;;;0.40;0.40;;;24.10;99.90;;;;;;4982143;28;20061;-73
2023/09/05 08:37:07;;;;;;;0.30;0.30;;;24.30;99.90;;;;;;5001709;28;20108;-73
2023/09/05 08:39:33;;;;;;;0.30;0.30;;;24.60;99.90;;;;;;4988802;28;20405;-73
2023/09/05 08:42:04;;;;;;;0.65;0.65;;;24.70;99.90;;;;;;4990628;28;20054;-74
2023/09/05 08:44:30;;;;;;;0.73;0.73;;;25.00;99.90;;;;;;4989924;28;20489;-74
2023/09/05 08:46:56;;;;;;;0.22;0.22;;;25.10;99.90;;;;;;4984443;28;20054;-73
2023/09/05 08:49:21;;;;;;;0.30;0.30;;;25.30;99.90;;;;;;4978572;28;20059;-74
2023/09/05 08:51:52;;;;;;;0.43;0.43;;;25.40;99.90;;;;;;5008710;28;20077;-73
2023/09/05 08:54:18;;;;;;;0.28;0.28;;;25.70;99.90;;;;;;4984723;28;20042;-74
2023/09/05 08:56:44;;;;;;;0.30;0.30;;;25.90;99.90;;;;;;4997601;28;20050;-73
2023/09/05 08:59:10;;;;;;;0.20;0.20;;;26.10;99.90;;;;;;4991720;28;20052;-73
2023/09/05 09:01:38;;;;;;;0.40;0.40;;;26.40;99.90;;;;;;4989048;28;20049;-73
2023/09/05 09:04:03;;;;;;;;;;;26.60;99.90;;;;;;5005088;28;20104;-73
2023/09/05 09:06:29;;;;;;;0.30;0.30;;;26.70;99.90;;;;;;5003328;28;20402;-73
2023/09/05 09:08:55;;;;;;;0.20;0.20;;;26.80;99.90;;;;;;4989597;28;20078;-73
2023/09/05 09:11:22;;;;;;;0.40;0.40;;;27.00;99.90;;;;;;4975650;28;20047;-73
2023/09/05 09:13:52;;;;;;;0.50;0.50;;;27.20;99.90;;;;;;5001984;28;20041;-73
2023/09/05 09:16:18;;;;;;;0.30;0.30;;;27.30;99.90;;;;;;4987677;28;20475;-73
2023/09/05 09:18:58;;;;;;;1.17;1.08;;;27.40;99.90;;;;;;4986351;28;20131;-73
2023/09/05 09:21:25;;;;;;;0.32;0.32;;;27.40;99.90;;;;;;4995240;28;20049;-73
2023/09/05 09:23:51;;;;;;;0.40;0.40;;;27.40;99.90;;;;;;4982539;28;20052;-73
2023/09/05 09:26:17;;;;;;;0.63;0.63;;;27.40;99.90;;;;;;4980591;28;20046;-73
2023/09/05 09:28:44;;;;;;;0.50;0.50;;;27.50;99.90;;;;;;4988685;28;20043;-73
2023/09/05 09:31:12;;;;;;;0.82;0.82;;;27.80;99.90;;;;;;4995575;28;20550;-73
2023/09/05 09:33:39;;;;;;;0.30;0.30;;;28.00;99.90;;;;;;4993381;28;20038;-73
2023/09/05 09:36:12;;;;;;;0.63;0.63;;;28.20;99.90;;;;;;4980820;28;20751;-73
2023/09/05 09:38:39;;;;;;;0.40;0.40;;;28.30;99.90;;;;;;4996272;28;20049;-73
2023/09/05 09:41:06;;;;;;;0.45;0.45;;;28.40;99.90;;;;;;4987487;28;20049;-73
2023/09/05 09:43:35;;;;;;;;;;;28.50;99.90;;;;;;5000485;28;20060;-73
2023/09/05 09:46:05;;;;;;;0.30;0.30;;;28.60;99.90;;;;;;5003370;28;20050;-73
2023/09/05 09:48:35;;;;;;;0.47;0.47;;;28.80;99.90;;;;;;4992276;28;20049;-73
2023/09/05 09:51:05;;;;;;;0.63;0.63;;;28.90;99.90;;;;;;4989306;28;20065;-73
2023/09/05 09:53:36;;;;;;;0.40;0.40;;;29.10;99.90;;;;;;4980832;28;20096;-73
2023/09/05 09:56:08;;;;;;;0.45;0.45;;;29.30;99.90;;;;;;4981634;28;20058;-73
2023/09/05 09:58:35;;;;;;;0.40;0.40;;;29.30;99.90;;;;;;4979203;28;20042;-73
2023/09/05 10:01:02;;;;;;;;;;;29.50;99.90;;;;;;4978824;28;20061;-73
2023/09/05 10:03:28;;;;;;;0.30;0.30;;;29.70;99.90;;;;;;4977620;28;19925;-73
2023/09/05 10:05:55;;;;;;;0.40;0.40;;;29.90;99.90;;;;;;4981875;28;20323;-73
2023/09/05 10:08:21;;;;;;;0.50;0.50;;;30.10;99.90;;;;;;4990052;28;20386;-73
2023/09/05 10:10:47;;;;;;;0.60;0.60;;;30.20;99.90;;;;;;4994074;28;20082;-73
2023/09/05 10:13:15;;;;;;;0.30;0.30;;;30.40;99.90;;;;;;4984333;28;20069;-74
2023/09/05 10:15:42;;;;;;;0.40;0.40;;;30.30;99.90;;;;;;5006907;28;20105;-74
2023/09/05 10:18:12;;;;;;;0.38;0.38;;;30.20;99.90;;;;;;4990464;28;20061;-74
2023/09/05 10:20:40;;;;;;;0.40;0.40;;;30.20;99.90;;;;;;4986904;28;20050;-74
2023/09/05 10:23:06;;;;;;;0.40;0.40;;;30.20;99.90;;;;;;4991853;28;20129;-74
2023/09/05 10:25:36;;;;;;;0.55;0.55;;;30.20;99.90;;;;;;4990774;28;20061;-74
2023/09/05 10:28:02;;;;;;;0.45;0.45;;;30.20;99.90;;;;;;4991084;28;20053;-75
2023/09/05 10:30:28;;;;;;;0.52;0.52;;;29.90;99.90;;;;;;4986983;28;20067;-74
2023/09/05 10:32:54;;;;;;;0.65;0.65;;;29.80;99.90;;;;;;4969824;28;20054;-74
2023/09/05 10:35:20;;;;;;;0.50;0.50;;;29.80;99.90;;;;;;4987691;28;20132;-74
2023/09/05 10:37:58;;;;;;;0.35;0.35;;;29.90;99.90;;;;;;5004116;28;20132;-75
2023/09/05 10:40:39;;;;;;;0.50;0.50;;;30.00;99.90;;;;;;4989944;28;20073;-74
2023/09/05 10:43:17;;;;;;;0.50;0.50;;;30.10;99.90;;;;;;4990503;28;20050;-74
2023/09/05 10:45:43;;;;;;;0.43;0.43;;;30.20;99.90;;;;;;4986296;28;20129;-75
2023/09/05 10:48:12;;;;;;;0.50;0.50;;;30.30;99.90;;;;;;4999068;28;20176;-75
2023/09/05 10:51:03;;;;;;;0.50;0.50;;;30.20;99.90;;;;;;4984725;28;20061;-75
2023/09/05 10:53:29;;;;;;;0.45;0.45;;;30.10;99.90;;;;;;4989937;28;20056;-75
2023/09/05 10:55:54;;;;;;;0.68;0.68;;;30.10;99.90;;;;;;4988144;28;20046;-74
2023/09/05 10:58:37;;;;;;;0.70;0.70;;;30.00;99.90;;;;;;4991346;28;20046;-74
2023/09/05 11:01:31;;;;;;;0.30;0.30;;;30.00;99.90;;;;;;4994175;28;20133;-74
2023/09/05 11:04:07;;;;;;;0.68;0.68;;;30.10;99.90;;;;;;4983574;28;20061;-74
2023/09/05 11:06:37;;;;;;;0.57;0.57;;;30.20;99.90;;;;;;4978077;28;20057;-75
2023/09/05 11:09:05;;;;;;;0.93;0.60;;;30.20;99.90;;;;;;4987309;28;20042;-74
2023/09/05 11:11:31;;;;;;;0.77;0.77;;;30.10;99.90;;;;;;5003102;28;20500;-74
2023/09/05 11:13:57;;;;;;;0.80;0.80;;;29.90;99.90;;;;;;4980918;28;20050;-74
2023/09/05 11:16:24;;;;;;;1.02;1.02;;;30.00;99.90;;;;;;4986458;28;20308;-74
2023/09/05 11:18:56;;;;;;;0.75;0.75;;;30.20;99.90;;;;;;4979452;28;20122;-74
2023/09/05 11:21:23;;;;;;;0.50;0.50;;;30.30;99.90;;;;;;4979468;28;20038;-74
2023/09/05 11:23:55;;;;;;;1.08;0.98;;;30.50;99.90;;;;;;4989067;28;20092;-74
2023/09/05 11:26:21;;;;;;;0.55;0.55;;;30.60;99.90;;;;;;5006609;28;20106;-74
2023/09/05 11:28:51;;;;;;;0.63;0.63;;;30.70;99.70;;;;;;4996728;28;20034;-74
2023/09/05 11:31:18;;;;;;;0.40;0.40;;;30.50;99.20;;;;;;4986300;28;20053;-74
2023/09/05 11:33:48;;;;;;;0.73;0.63;;;30.60;99.70;;;;;;4977140;28;20090;-74
2023/09/05 11:36:14;;;;;;;0.38;0.38;;;30.70;99.90;;;;;;4985212;28;20543;-74
2023/09/05 11:38:48;;;;;;;0.73;0.73;;;30.80;99.80;;;;;;4987524;28;20143;-74
2023/09/05 11:41:15;;;;;;;0.57;0.57;;;30.90;99.20;;;;;;4989114;28;20148;-74
2023/09/05 11:43:54;;;;;;;0.40;0.40;;;31.00;99.90;;;;;;4971503;28;20053;-74
2023/09/05 11:46:21;;;;;;;0.35;0.35;;;31.10;99.40;;;;;;5005738;28;20077;-74
2023/09/05 11:48:48;;;;;;;;;;;31.20;98.90;;;;;;4980828;28;20062;-75
2023/09/05 11:51:14;;;;;;;0.40;0.40;;;31.30;98.40;;;;;;5006629;28;19921;-74
2023/09/05 11:53:45;;;;;;;0.38;0.38;;;31.30;98.80;;;;;;4982724;28;20529;-75
2023/09/05 11:56:12;;;;;;;0.38;0.38;;;31.30;96.50;;;;;;4990170;28;20411;-74
2023/09/05 11:58:38;;;;;;;0.38;0.38;;;31.40;96.80;;;;;;4999137;28;20049;-74
2023/09/05 12:01:04;;;;;;;0.70;0.70;;;31.50;95.70;;;;;;5001269;28;20077;-74
2023/09/05 12:03:30;;;;;;;0.30;0.30;;;31.60;94.50;;;;;;5006549;28;20052;-74
2023/09/05 12:05:57;;;;;;;0.30;0.30;;;31.70;92.80;;;;;;5003816;28;20046;-74
2023/09/05 12:08:23;;;;;;;0.40;0.40;;;31.90;94.70;;;;;;4989081;28;20104;-75
2023/09/05 12:10:52;;;;;;;0.40;0.40;;;31.90;94.10;;;;;;4990504;28;20529;-74
2023/09/05 12:13:38;;;;;;;0.30;0.30;;;32.00;94.80;;;;;;4989995;28;20054;-74
2023/09/05 12:16:07;;;;;;;0.52;0.52;;;32.10;94.50;;;;;;4994649;28;20054;-74
2023/09/05 12:18:33;;;;;;;0.77;0.77;;;32.10;93.90;;;;;;4988742;28;20042;-74
2023/09/05 12:21:02;;;;;;;0.60;0.60;;;32.10;94.60;;;;;;4984372;28;20041;-74
2023/09/05 12:23:29;;;;;;;0.40;0.40;;;32.20;93.80;;;;;;4998711;28;20122;-74
2023/09/05 12:25:55;;;;;;;0.50;0.50;;;32.20;94.10;;;;;;4987240;28;20088;-75
2023/09/05 12:28:22;;;;;;;0.30;0.30;;;32.20;93.50;;;;;;4981796;28;20073;-75
2023/09/05 12:30:53;;;;;;;0.75;0.40;;;32.30;93.70;;;;;;4986556;28;20053;-75
2023/09/05 12:33:19;;;;;;;1.08;0.63;;;32.20;93.70;;;;;;4985305;28;20615;-74
2023/09/05 12:35:46;;;;;;;0.40;0.40;;;32.20;93.70;;;;;;4984143;28;20060;-74
2023/09/05 12:38:13;;;;;;;0.50;0.50;;;32.30;93.40;;;;;;4976401;28;20066;-74
2023/09/05 12:40:40;;;;;;;0.52;0.52;;;32.30;93.00;;;;;;4974600;28;20293;-74
2023/09/05 12:43:06;;;;;;;0.40;0.40;;;32.20;92.00;;;;;;5004217;28;20074;-74
2023/09/05 12:45:34;;;;;;;0.50;0.50;;;32.30;92.00;;;;;;4988567;28;20371;-74
2023/09/05 12:48:00;;;;;;;0.60;0.60;;;32.30;91.60;;;;;;4980356;28;20050;-75